EKBI Airport Information

Runway Information
Runway 09 Length 10172 ft width 148 ft
Elevation 215 ft Threshold 492 ft Heading 87
Runway 27 Length 10172 ft Width 148 ft
Elevation 244 ft Threshold 492 ft Heading 267
Airport Frequencies
Type APP Name APP Frequency 127.575 MHZ
Type ATIS Name ATIS Frequency 118.775 MHZ
Type MISC Name CARGO HAND Frequency 122.075 MHZ
Type MISC Name HANDLING Frequency 130.85 MHZ
Type OPS Name ARPT OFFIC Frequency 131.5 MHZ
Type TWR Name TWR Frequency 119 MHZ
Airport Navaids
Type NDB Name Billund Frequency 341 KHZ
Airport Weather Information & NOTAM
ADDS - METARS form results

(2132 UTC 17 December 2017)
 
METAR text: EKBI 172120Z 16007KT 130V190 9999 FEW009 SCT033 01/00 Q1016 R09/31//95
Conditions at: EKBI (BILLUND AIRPORT , DK) observed 2120 UTC 17 December 2017
Temperature: 1.0°C (34°F)
Dewpoint: 0.0°C (32°F) [RH = 93%]
Pressure (altimeter): 30.00 inches Hg (1016.0 mb)
Winds: from the SSE (160 degrees) at 8 MPH (7 knots; 3.6 m/s)
Visibility: 6 or more miles (10+ km)
Ceiling: at least 12,000 feet AGL
Clouds: few clouds at 900 feet AGL
scattered clouds at 3300 feet AGL
Weather: no significant weather observed at this time

METAR text: EKBI 172050Z 16007KT 130V190 9999 FEW009 SCT033 00/M00 Q1016 R09/31//95
Conditions at: EKBI (BILLUND AIRPORT , DK) observed 2050 UTC 17 December 2017
Temperature: 0.0°C (32°F)
Dewpoint: 0.0°C (32°F) [RH = 100%]
Pressure (altimeter): 30.00 inches Hg (1016.0 mb)
Winds: from the SSE (160 degrees) at 8 MPH (7 knots; 3.6 m/s)
Visibility: 6 or more miles (10+ km)
Ceiling: at least 12,000 feet AGL
Clouds: few clouds at 900 feet AGL
scattered clouds at 3300 feet AGL
Weather: no significant weather observed at this time